sensor_id;sensor_type;location;lat;lon;timestamp;temperature;humidity
27633;DHT22;15046;50.930;13.334;2023-04-01T00:02:08;8.00;99.90
27633;DHT22;15046;50.930;13.334;2023-04-01T00:04:33;8.00;99.90
27633;DHT22;15046;50.930;13.334;2023-04-01T00:07:00;8.00;99.90
27633;DHT22;15046;50.930;13.334;2023-04-01T00:09:27;8.00;99.90
27633;DHT22;15046;50.930;13.334;2023-04-01T00:11:52;8.00;99.90
27633;DHT22;15046;50.930;13.334;2023-04-01T00:14:18;8.00;99.90
27633;DHT22;15046;50.930;13.334;2023-04-01T00:16:44;8.00;99.90
27633;DHT22;15046;50.930;13.334;2023-04-01T00:19:10;8.00;99.90
27633;DHT22;15046;50.930;13.334;2023-04-01T00:21:36;8.00;99.90
27633;DHT22;15046;50.930;13.334;2023-04-01T00:24:02;8.00;99.90
27633;DHT22;15046;50.930;13.334;2023-04-01T00:26:28;8.00;99.90
27633;DHT22;15046;50.930;13.334;2023-04-01T00:28:54;8.00;99.90
27633;DHT22;15046;50.930;13.334;2023-04-01T00:31:20;8.00;99.90
27633;DHT22;15046;50.930;13.334;2023-04-01T00:33:46;8.00;99.90
27633;DHT22;15046;50.930;13.334;2023-04-01T00:36:18;7.90;99.90
27633;DHT22;15046;50.930;13.334;2023-04-01T00:38:45;7.90;99.90
27633;DHT22;15046;50.930;13.334;2023-04-01T00:41:13;7.90;99.90
27633;DHT22;15046;50.930;13.334;2023-04-01T00:43:49;7.90;99.90
27633;DHT22;15046;50.930;13.334;2023-04-01T00:46:15;7.90;99.90
27633;DHT22;15046;50.930;13.334;2023-04-01T00:49:01;7.90;99.90
27633;DHT22;15046;50.930;13.334;2023-04-01T00:51:29;7.90;99.90
27633;DHT22;15046;50.930;13.334;2023-04-01T00:53:58;7.90;99.90
27633;DHT22;15046;50.930;13.334;2023-04-01T00:56:38;7.90;99.90
27633;DHT22;15046;50.930;13.334;2023-04-01T00:59:13;7.90;99.90
27633;DHT22;15046;50.930;13.334;2023-04-01T01:01:40;7.90;99.90
27633;DHT22;15046;50.930;13.334;2023-04-01T01:04:06;7.90;99.90
27633;DHT22;15046;50.930;13.334;2023-04-01T01:12:20;7.80;99.90
27633;DHT22;15046;50.930;13.334;2023-04-01T01:15:12;7.80;99.90
27633;DHT22;15046;50.930;13.334;2023-04-01T01:20:14;7.80;99.90
27633;DHT22;15046;50.930;13.334;2023-04-01T01:22:52;7.80;99.90
27633;DHT22;15046;50.930;13.334;2023-04-01T01:31:22;7.80;99.90
27633;DHT22;15046;50.930;13.334;2023-04-01T01:36:32;7.80;99.90
27633;DHT22;15046;50.930;13.334;2023-04-01T01:39:06;7.80;99.90
27633;DHT22;15046;50.930;13.334;2023-04-01T01:41:34;7.70;99.90
27633;DHT22;15046;50.930;13.334;2023-04-01T01:44:04;7.70;99.90
27633;DHT22;15046;50.930;13.334;2023-04-01T01:46:33;7.80;99.90
27633;DHT22;15046;50.930;13.334;2023-04-01T01:49:00;7.80;99.90
27633;DHT22;15046;50.930;13.334;2023-04-01T01:51:28;7.70;99.90
27633;DHT22;15046;50.930;13.334;2023-04-01T01:53:54;7.80;99.90
27633;DHT22;15046;50.930;13.334;2023-04-01T01:56:23;7.80;99.90
27633;DHT22;15046;50.930;13.334;2023-04-01T01:58:57;7.80;99.90
27633;DHT22;15046;50.930;13.334;2023-04-01T02:01:26;7.80;99.90
27633;DHT22;15046;50.930;13.334;2023-04-01T02:03:53;7.70;99.90
27633;DHT22;15046;50.930;13.334;2023-04-01T02:06:22;7.80;99.90
27633;DHT22;15046;50.930;13.334;2023-04-01T02:08:58;7.80;99.90
27633;DHT22;15046;50.930;13.334;2023-04-01T02:11:35;7.80;99.90
27633;DHT22;15046;50.930;13.334;2023-04-01T02:14:15;7.80;99.90
27633;DHT22;15046;50.930;13.334;2023-04-01T02:16:58;7.80;99.90
27633;DHT22;15046;50.930;13.334;2023-04-01T02:19:31;7.70;99.90
27633;DHT22;15046;50.930;13.334;2023-04-01T02:22:00;7.70;99.90
27633;DHT22;15046;50.930;13.334;2023-04-01T02:24:28;7.70;99.90
27633;DHT22;15046;50.930;13.334;2023-04-01T02:26:56;7.70;99.90
27633;DHT22;15046;50.930;13.334;2023-04-01T02:29:23;7.60;99.90
27633;DHT22;15046;50.930;13.334;2023-04-01T02:31:51;7.60;99.90
27633;DHT22;15046;50.930;13.334;2023-04-01T02:34:17;7.60;99.90
27633;DHT22;15046;50.930;13.334;2023-04-01T02:36:44;7.60;99.90
27633;DHT22;15046;50.930;13.334;2023-04-01T02:39:10;7.60;99.90
27633;DHT22;15046;50.930;13.334;2023-04-01T02:41:43;7.60;99.90
27633;DHT22;15046;50.930;13.334;2023-04-01T02:44:11;7.60;99.90
27633;DHT22;15046;50.930;13.334;2023-04-01T02:46:37;7.60;99.90
27633;DHT22;15046;50.930;13.334;2023-04-01T02:49:03;7.60;99.90
27633;DHT22;15046;50.930;13.334;2023-04-01T02:51:29;7.60;99.90
27633;DHT22;15046;50.930;13.334;2023-04-01T02:53:54;7.50;99.90
27633;DHT22;15046;50.930;13.334;2023-04-01T02:56:20;7.50;99.90
27633;DHT22;15046;50.930;13.334;2023-04-01T02:58:47;7.50;99.90
27633;DHT22;15046;50.930;13.334;2023-04-01T03:01:13;7.50;99.90
27633;DHT22;15046;50.930;13.334;2023-04-01T03:03:39;7.50;99.90
27633;DHT22;15046;50.930;13.334;2023-04-01T03:06:11;7.50;99.90
27633;DHT22;15046;50.930;13.334;2023-04-01T03:08:37;7.50;99.90
27633;DHT22;15046;50.930;13.334;2023-04-01T03:11:03;7.50;99.90
27633;DHT22;15046;50.930;13.334;2023-04-01T03:13:28;7.50;99.90
27633;DHT22;15046;50.930;13.334;2023-04-01T03:15:54;7.50;99.90
27633;DHT22;15046;50.930;13.334;2023-04-01T03:18:20;7.50;99.90
27633;DHT22;15046;50.930;13.334;2023-04-01T03:20:46;7.50;99.90
27633;DHT22;15046;50.930;13.334;2023-04-01T03:23:12;7.50;99.90
27633;DHT22;15046;50.930;13.334;2023-04-01T03:25:38;7.40;99.90
27633;DHT22;15046;50.930;13.334;2023-04-01T03:28:04;7.50;99.90
27633;DHT22;15046;50.930;13.334;2023-04-01T03:30:30;7.50;99.90
27633;DHT22;15046;50.930;13.334;2023-04-01T03:32:57;7.50;99.90
27633;DHT22;15046;50.930;13.334;2023-04-01T03:35:24;7.50;99.90
27633;DHT22;15046;50.930;13.334;2023-04-01T03:37:51;7.50;99.90
27633;DHT22;15046;50.930;13.334;2023-04-01T03:40:17;7.50;99.90
27633;DHT22;15046;50.930;13.334;2023-04-01T03:42:43;7.50;99.90
27633;DHT22;15046;50.930;13.334;2023-04-01T03:45:09;7.50;99.90
27633;DHT22;15046;50.930;13.334;2023-04-01T03:47:35;7.50;99.90
27633;DHT22;15046;50.930;13.334;2023-04-01T03:50:01;7.50;99.90
27633;DHT22;15046;50.930;13.334;2023-04-01T03:52:27;7.50;99.90
27633;DHT22;15046;50.930;13.334;2023-04-01T03:54:53;7.50;99.90
27633;DHT22;15046;50.930;13.334;2023-04-01T03:57:18;7.50;99.90
27633;DHT22;15046;50.930;13.334;2023-04-01T03:59:44;7.50;99.90
27633;DHT22;15046;50.930;13.334;2023-04-01T04:02:10;7.50;99.90
27633;DHT22;15046;50.930;13.334;2023-04-01T04:04:36;7.50;99.90
27633;DHT22;15046;50.930;13.334;2023-04-01T04:07:01;7.50;99.90
27633;DHT22;15046;50.930;13.334;2023-04-01T04:09:29;7.50;99.90
27633;DHT22;15046;50.930;13.334;2023-04-01T04:11:55;7.50;99.90
27633;DHT22;15046;50.930;13.334;2023-04-01T04:14:20;7.60;99.90
27633;DHT22;15046;50.930;13.334;2023-04-01T04:16:46;7.50;99.90
27633;DHT22;15046;50.930;13.334;2023-04-01T04:19:12;7.50;99.90
27633;DHT22;15046;50.930;13.334;2023-04-01T04:21:39;7.50;99.90
27633;DHT22;15046;50.930;13.334;2023-04-01T04:24:05;7.50;99.90
27633;DHT22;15046;50.930;13.334;2023-04-01T04:26:31;7.50;99.90
27633;DHT22;15046;50.930;13.334;2023-04-01T04:28:57;7.50;99.90
27633;DHT22;15046;50.930;13.334;2023-04-01T04:31:24;7.50;99.90
27633;DHT22;15046;50.930;13.334;2023-04-01T04:33:50;7.50;99.90
27633;DHT22;15046;50.930;13.334;2023-04-01T04:36:17;7.50;99.90
27633;DHT22;15046;50.930;13.334;2023-04-01T04:38:43;7.50;99.90
27633;DHT22;15046;50.930;13.334;2023-04-01T04:41:14;7.50;99.90
27633;DHT22;15046;50.930;13.334;2023-04-01T04:43:41;7.40;99.90
27633;DHT22;15046;50.930;13.334;2023-04-01T04:46:08;7.40;99.90
27633;DHT22;15046;50.930;13.334;2023-04-01T04:48:34;7.40;99.90
27633;DHT22;15046;50.930;13.334;2023-04-01T04:51:00;7.40;99.90
27633;DHT22;15046;50.930;13.334;2023-04-01T04:53:26;7.40;99.90
27633;DHT22;15046;50.930;13.334;2023-04-01T04:55:52;7.40;99.90
27633;DHT22;15046;50.930;13.334;2023-04-01T04:58:18;7.40;99.90
27633;DHT22;15046;50.930;13.334;2023-04-01T05:00:44;7.40;99.90
27633;DHT22;15046;50.930;13.334;2023-04-01T05:03:11;7.40;99.90
27633;DHT22;15046;50.930;13.334;2023-04-01T05:05:38;7.40;99.90
27633;DHT22;15046;50.930;13.334;2023-04-01T05:08:04;7.40;99.90
27633;DHT22;15046;50.930;13.334;2023-04-01T05:10:30;7.40;99.90
27633;DHT22;15046;50.930;13.334;2023-04-01T05:12:57;7.40;99.90
27633;DHT22;15046;50.930;13.334;2023-04-01T05:15:23;7.40;99.90
27633;DHT22;15046;50.930;13.334;2023-04-01T05:17:49;7.50;99.90
27633;DHT22;15046;50.930;13.334;2023-04-01T05:20:15;7.40;99.90
27633;DHT22;15046;50.930;13.334;2023-04-01T05:22:42;7.40;99.90
27633;DHT22;15046;50.930;13.334;2023-04-01T05:25:08;7.50;99.90
27633;DHT22;15046;50.930;13.334;2023-04-01T05:27:34;7.50;99.90
27633;DHT22;15046;50.930;13.334;2023-04-01T05:29:59;7.50;99.90
27633;DHT22;15046;50.930;13.334;2023-04-01T05:32:25;7.60;99.90
27633;DHT22;15046;50.930;13.334;2023-04-01T05:34:52;7.60;99.90
27633;DHT22;15046;50.930;13.334;2023-04-01T05:37:18;7.60;99.90
27633;DHT22;15046;50.930;13.334;2023-04-01T05:39:44;7.70;99.90
27633;DHT22;15046;50.930;13.334;2023-04-01T05:42:10;7.70;99.90
27633;DHT22;15046;50.930;13.334;2023-04-01T05:44:36;7.70;99.90
27633;DHT22;15046;50.930;13.334;2023-04-01T05:47:03;7.80;99.90
27633;DHT22;15046;50.930;13.334;2023-04-01T05:49:29;7.90;99.90
27633;DHT22;15046;50.930;13.334;2023-04-01T05:51:55;7.90;99.90
27633;DHT22;15046;50.930;13.334;2023-04-01T05:54:21;8.00;99.90
27633;DHT22;15046;50.930;13.334;2023-04-01T05:56:47;8.00;99.90
27633;DHT22;15046;50.930;13.334;2023-04-01T05:59:13;8.10;99.90
27633;DHT22;15046;50.930;13.334;2023-04-01T06:01:39;8.10;99.90
27633;DHT22;15046;50.930;13.334;2023-04-01T06:04:05;8.20;99.90
27633;DHT22;15046;50.930;13.334;2023-04-01T06:06:31;8.20;99.90
27633;DHT22;15046;50.930;13.334;2023-04-01T06:09:12;8.30;99.90
27633;DHT22;15046;50.930;13.334;2023-04-01T06:14:35;8.40;99.90
27633;DHT22;15046;50.930;13.334;2023-04-01T06:20:42;8.60;99.90
27633;DHT22;15046;50.930;13.334;2023-04-01T06:26:05;8.50;99.90
27633;DHT22;15046;50.930;13.334;2023-04-01T06:31:25;8.30;99.90
27633;DHT22;15046;50.930;13.334;2023-04-01T06:34:02;8.20;99.90
27633;DHT22;15046;50.930;13.334;2023-04-01T06:36:50;8.20;99.90
27633;DHT22;15046;50.930;13.334;2023-04-01T06:45:45;8.30;99.90
27633;DHT22;15046;50.930;13.334;2023-04-01T06:48:38;8.40;99.90
27633;DHT22;15046;50.930;13.334;2023-04-01T06:51:26;8.40;99.90
27633;DHT22;15046;50.930;13.334;2023-04-01T06:56:29;8.50;99.90
27633;DHT22;15046;50.930;13.334;2023-04-01T06:59:17;8.60;99.90
27633;DHT22;15046;50.930;13.334;2023-04-01T07:01:57;8.60;99.90
27633;DHT22;15046;50.930;13.334;2023-04-01T07:04:36;8.60;99.90
27633;DHT22;15046;50.930;13.334;2023-04-01T07:09:48;8.80;99.90
27633;DHT22;15046;50.930;13.334;2023-04-01T07:17:39;9.00;99.90
27633;DHT22;15046;50.930;13.334;2023-04-01T07:20:24;9.10;99.90
27633;DHT22;15046;50.930;13.334;2023-04-01T07:22:58;9.20;99.90
27633;DHT22;15046;50.930;13.334;2023-04-01T07:25:34;9.20;99.90
27633;DHT22;15046;50.930;13.334;2023-04-01T07:28:04;9.30;99.90
27633;DHT22;15046;50.930;13.334;2023-04-01T07:33:39;9.50;99.90
27633;DHT22;15046;50.930;13.334;2023-04-01T07:36:45;9.70;99.90
27633;DHT22;15046;50.930;13.334;2023-04-01T07:42:02;10.00;99.90
27633;DHT22;15046;50.930;13.334;2023-04-01T07:44:54;10.00;99.90
27633;DHT22;15046;50.930;13.334;2023-04-01T07:47:33;9.90;99.90
27633;DHT22;15046;50.930;13.334;2023-04-01T07:50:21;10.00;99.90
27633;DHT22;15046;50.930;13.334;2023-04-01T07:53:43;10.00;99.90
27633;DHT22;15046;50.930;13.334;2023-04-01T07:56:08;10.00;99.90
27633;DHT22;15046;50.930;13.334;2023-04-01T08:17:34;10.20;99.90
27633;DHT22;15046;50.930;13.334;2023-04-01T08:20:33;10.30;99.90
27633;DHT22;15046;50.930;13.334;2023-04-01T08:23:07;10.30;99.90
27633;DHT22;15046;50.930;13.334;2023-04-01T08:25:40;10.30;99.90
27633;DHT22;15046;50.930;13.334;2023-04-01T08:30:47;10.40;99.90
27633;DHT22;15046;50.930;13.334;2023-04-01T08:33:23;10.50;99.90
27633;DHT22;15046;50.930;13.334;2023-04-01T08:35:54;10.50;99.90
27633;DHT22;15046;50.930;13.334;2023-04-01T08:38:42;10.60;99.90
27633;DHT22;15046;50.930;13.334;2023-04-01T08:41:31;10.70;99.90
27633;DHT22;15046;50.930;13.334;2023-04-01T08:52:18;11.10;99.90
27633;DHT22;15046;50.930;13.334;2023-04-01T09:28:18;11.20;99.90
27633;DHT22;15046;50.930;13.334;2023-04-01T09:34:15;11.30;99.90
27633;DHT22;15046;50.930;13.334;2023-04-01T09:36:51;11.30;99.90
27633;DHT22;15046;50.930;13.334;2023-04-01T09:45:09;11.30;99.90
27633;DHT22;15046;50.930;13.334;2023-04-01T09:50:22;10.90;99.90
27633;DHT22;15046;50.930;13.334;2023-04-01T09:53:05;10.90;99.90
27633;DHT22;15046;50.930;13.334;2023-04-01T09:59:15;11.00;99.90
27633;DHT22;15046;50.930;13.334;2023-04-01T10:16:03;11.80;99.90
27633;DHT22;15046;50.930;13.334;2023-04-01T10:29:51;11.50;99.90
27633;DHT22;15046;50.930;13.334;2023-04-01T10:33:06;11.30;99.90
27633;DHT22;15046;50.930;13.334;2023-04-01T10:38:38;11.20;99.90
27633;DHT22;15046;50.930;13.334;2023-04-01T10:41:15;11.20;99.90
27633;DHT22;15046;50.930;13.334;2023-04-01T10:49:48;12.10;99.90
27633;DHT22;15046;50.930;13.334;2023-04-01T11:24:13;20.70;93.10
27633;DHT22;15046;50.930;13.334;2023-04-01T11:26:41;20.00;91.00
27633;DHT22;15046;50.930;13.334;2023-04-01T11:32:29;17.20;91.90
27633;DHT22;15046;50.930;13.334;2023-04-01T11:37:49;15.80;93.30
27633;DHT22;15046;50.930;13.334;2023-04-01T11:46:12;14.50;94.50
27633;DHT22;15046;50.930;13.334;2023-04-01T12:05:54;13.20;96.70
27633;DHT22;15046;50.930;13.334;2023-04-01T12:08:29;12.80;97.40
27633;DHT22;15046;50.930;13.334;2023-04-01T12:11:06;12.70;98.40
27633;DHT22;15046;50.930;13.334;2023-04-01T12:19:17;12.10;99.80
27633;DHT22;15046;50.930;13.334;2023-04-01T12:28:15;12.20;99.90
27633;DHT22;15046;50.930;13.334;2023-04-01T12:36:59;17.70;98.50
27633;DHT22;15046;50.930;13.334;2023-04-01T12:48:10;18.70;93.90
27633;DHT22;15046;50.930;13.334;2023-04-01T13:02:31;18.70;90.30
27633;DHT22;15046;50.930;13.334;2023-04-01T13:11:04;16.20;92.20
27633;DHT22;15046;50.930;13.334;2023-04-01T13:16:27;15.60;93.00
27633;DHT22;15046;50.930;13.334;2023-04-01T13:24:35;14.70;93.50
27633;DHT22;15046;50.930;13.334;2023-04-01T13:27:09;14.60;93.90
27633;DHT22;15046;50.930;13.334;2023-04-01T13:40:36;14.60;94.00
27633;DHT22;15046;50.930;13.334;2023-04-01T13:48:58;16.00;92.60
27633;DHT22;15046;50.930;13.334;2023-04-01T14:14:02;15.10;92.60
27633;DHT22;15046;50.930;13.334;2023-04-01T14:16:47;14.80;92.80
27633;DHT22;15046;50.930;13.334;2023-04-01T14:35:58;14.00;94.30
27633;DHT22;15046;50.930;13.334;2023-04-01T14:54:37;14.30;95.00
27633;DHT22;15046;50.930;13.334;2023-04-01T14:57:15;14.20;95.30
27633;DHT22;15046;50.930;13.334;2023-04-01T14:59:52;14.10;95.50
27633;DHT22;15046;50.930;13.334;2023-04-01T15:08:01;14.10;95.40
27633;DHT22;15046;50.930;13.334;2023-04-01T15:16:06;14.30;95.30
27633;DHT22;15046;50.930;13.334;2023-04-01T15:18:56;14.30;95.10
27633;DHT22;15046;50.930;13.334;2023-04-01T15:24:23;14.00;95.20
27633;DHT22;15046;50.930;13.334;2023-04-01T15:37:56;13.30;94.80
27633;DHT22;15046;50.930;13.334;2023-04-01T15:40:31;13.30;94.80
27633;DHT22;15046;50.930;13.334;2023-04-01T15:43:12;13.20;94.60
27633;DHT22;15046;50.930;13.334;2023-04-01T15:48:25;13.30;94.80
27633;DHT22;15046;50.930;13.334;2023-04-01T15:51:36;13.30;95.00
27633;DHT22;15046;50.930;13.334;2023-04-01T15:57:32;13.30;94.90
27633;DHT22;15046;50.930;13.334;2023-04-01T16:00:16;13.20;95.20
27633;DHT22;15046;50.930;13.334;2023-04-01T16:08:14;13.40;95.20
27633;DHT22;15046;50.930;13.334;2023-04-01T16:21:38;13.10;95.50
27633;DHT22;15046;50.930;13.334;2023-04-01T16:24:41;13.00;95.80
27633;DHT22;15046;50.930;13.334;2023-04-01T16:29:40;12.90;95.90
27633;DHT22;15046;50.930;13.334;2023-04-01T16:32:23;12.90;96.00
27633;DHT22;15046;50.930;13.334;2023-04-01T16:35:34;12.90;96.00
27633;DHT22;15046;50.930;13.334;2023-04-01T16:41:04;12.70;96.30
27633;DHT22;15046;50.930;13.334;2023-04-01T16:44:09;12.70;96.40
27633;DHT22;15046;50.930;13.334;2023-04-01T16:46:34;12.60;96.70
27633;DHT22;15046;50.930;13.334;2023-04-01T16:49:13;12.60;96.70
27633;DHT22;15046;50.930;13.334;2023-04-01T17:01:04;12.40;97.30
27633;DHT22;15046;50.930;13.334;2023-04-01T17:14:25;11.90;98.60
27633;DHT22;15046;50.930;13.334;2023-04-01T17:17:22;11.80;98.60
27633;DHT22;15046;50.930;13.334;2023-04-01T17:34:01;11.40;99.90
27633;DHT22;15046;50.930;13.334;2023-04-01T18:23:14;11.50;99.90
27633;DHT22;15046;50.930;13.334;2023-04-01T18:32:43;11.40;99.90
27633;DHT22;15046;50.930;13.334;2023-04-01T19:59:50;10.20;99.90
27633;DHT22;15046;50.930;13.334;2023-04-01T20:16:16;10.10;99.90
27633;DHT22;15046;50.930;13.334;2023-04-01T20:19:03;10.10;99.90
27633;DHT22;15046;50.930;13.334;2023-04-01T20:21:57;10.00;99.90
27633;DHT22;15046;50.930;13.334;2023-04-01T20:24:59;10.00;99.90
27633;DHT22;15046;50.930;13.334;2023-04-01T20:34:27;9.90;99.90
27633;DHT22;15046;50.930;13.334;2023-04-01T20:41:34;10.00;99.90
27633;DHT22;15046;50.930;13.334;2023-04-01T20:51:06;9.90;99.90
27633;DHT22;15046;50.930;13.334;2023-04-01T21:00:49;9.70;99.90
27633;DHT22;15046;50.930;13.334;2023-04-01T21:33:56;9.70;99.90
27633;DHT22;15046;50.930;13.334;2023-04-01T22:07:17;9.60;99.90
27633;DHT22;15046;50.930;13.334;2023-04-01T22:12:44;9.60;99.90
27633;DHT22;15046;50.930;13.334;2023-04-01T22:18:17;9.60;99.90
27633;DHT22;15046;50.930;13.334;2023-04-01T22:23:31;9.60;99.90
27633;DHT22;15046;50.930;13.334;2023-04-01T22:26:38;9.50;99.90
27633;DHT22;15046;50.930;13.334;2023-04-01T22:32:08;9.50;99.90
27633;DHT22;15046;50.930;13.334;2023-04-01T22:37:23;9.40;99.90
27633;DHT22;15046;50.930;13.334;2023-04-01T22:40:02;9.40;99.90
27633;DHT22;15046;50.930;13.334;2023-04-01T22:45:39;9.20;99.90
27633;DHT22;15046;50.930;13.334;2023-04-01T22:51:24;9.10;99.90
27633;DHT22;15046;50.930;13.334;2023-04-01T22:57:05;9.00;99.90
27633;DHT22;15046;50.930;13.334;2023-04-01T23:00:12;8.90;99.90
27633;DHT22;15046;50.930;13.334;2023-04-01T23:06:00;8.90;99.90
27633;DHT22;15046;50.930;13.334;2023-04-01T23:11:04;8.80;99.90
27633;DHT22;15046;50.930;13.334;2023-04-01T23:16:37;8.80;99.90
27633;DHT22;15046;50.930;13.334;2023-04-01T23:19:32;8.70;99.90
27633;DHT22;15046;50.930;13.334;2023-04-01T23:22:25;8.70;99.90
27633;DHT22;15046;50.930;13.334;2023-04-01T23:27:41;8.70;99.90
27633;DHT22;15046;50.930;13.334;2023-04-01T23:35:52;8.60;99.90
27633;DHT22;15046;50.930;13.334;2023-04-01T23:38:23;8.60;99.90
27633;DHT22;15046;50.930;13.334;2023-04-01T23:40:51;8.50;99.90
27633;DHT22;15046;50.930;13.334;2023-04-01T23:43:29;8.50;99.90
27633;DHT22;15046;50.930;13.334;2023-04-01T23:46:01;8.50;99.90
27633;DHT22;15046;50.930;13.334;2023-04-01T23:48:35;8.40;99.90
27633;DHT22;15046;50.930;13.334;2023-04-01T23:51:02;8.40;99.90
27633;DHT22;15046;50.930;13.334;2023-04-01T23:53:31;8.40;99.90
27633;DHT22;15046;50.930;13.334;2023-04-01T23:55:58;8.40;99.90
27633;DHT22;15046;50.930;13.334;2023-04-01T23:58:25;8.40;99.90
